Time;durP1;ratioP1;P1;durP2;ratioP2;P2;SDS_P1;SDS_P2;PMS_P1;PMS_P2;Temp;Humidity;BMP_temperature;BMP_pressure;BME280_temperature;BME280_humidity;BME280_pressure;Samples;Min_cycle;Max_cycle;Signal;HPM_P1;HPM_P2
2023/02/02 00:00:50;;;;;;;2.90;1.40;;;;;;;1.05;94.70;95703.27;108767;1274;22977;-79
2023/02/02 00:03:38;;;;;;;3.00;1.10;;;;;;;1.05;95.06;95693.56;108554;1268;206747;-79
2023/02/02 00:06:10;;;;;;;2.20;1.10;;;;;;;1.05;95.22;95696.08;108746;1269;25416;-79
2023/02/02 00:08:42;;;;;;;3.60;1.50;;;;;;;1.03;95.29;95694.80;108725;1270;69427;-79
2023/02/02 00:11:14;;;;;;;3.20;1.20;;;;;;;1.03;95.62;95690.67;108716;1274;22723;-79
2023/02/02 00:13:46;;;;;;;2.00;0.90;;;;;;;1.03;95.75;95693.75;108788;1272;25411;-79
2023/02/02 00:16:37;;;;;;;1.60;1.20;;;;;;;1.04;95.71;95679.56;108753;1267;22558;-79
2023/02/02 00:19:11;;;;;;;4.50;1.10;;;;;;;1.06;96.04;95677.91;108651;1274;45835;-79
2023/02/02 00:21:46;;;;;;;2.50;0.90;;;;;;;1.07;96.15;95692.23;108742;1275;22573;-78
2023/02/02 00:24:18;;;;;;;2.00;0.70;;;;;;;1.03;96.42;95692.20;108728;1268;22514;-79
2023/02/02 00:26:53;;;;;;;1.40;0.90;;;;;;;0.97;96.62;95691.50;108732;1274;22565;-78
2023/02/02 00:29:27;;;;;;;4.00;1.40;;;;;;;0.91;97.11;95690.13;108760;1275;42610;-78
2023/02/02 00:31:58;;;;;;;0.90;0.70;;;;;;;0.87;97.17;95690.77;108731;1268;24251;-78
2023/02/02 00:34:30;;;;;;;1.80;1.00;;;;;;;0.84;97.44;95691.17;108770;1269;24234;-78
2023/02/02 00:37:01;;;;;;;1.60;1.20;;;;;;;0.81;98.02;95692.70;108735;1263;22520;-78
2023/02/02 00:39:32;;;;;;;2.30;1.00;;;;;;;0.77;98.25;95689.77;108701;1275;31467;-79
2023/02/02 00:42:04;;;;;;;0.90;0.80;;;;;;;0.70;98.47;95688.27;108747;1256;22549;-79
2023/02/02 00:47:24;;;;;;;1.60;1.10;;;;;;;0.63;99.61;95702.45;108745;1274;24204;-79
2023/02/02 00:49:56;;;;;;;1.10;0.70;;;;;;;0.60;99.73;95698.55;108742;1274;34491;-79
2023/02/02 00:52:30;;;;;;;0.90;0.80;;;;;;;0.59;99.98;95708.23;108747;1267;22661;-78
2023/02/02 00:55:01;;;;;;;0.60;0.60;;;;;;;0.53;99.96;95704.48;108784;1274;23754;-78
2023/02/02 00:57:32;;;;;;;1.20;0.90;;;;;;;0.49;100.00;95707.23;108742;1274;23907;-79
2023/02/02 01:00:04;;;;;;;1.10;0.80;;;;;;;0.43;100.00;95709.50;108776;1275;34811;-79
2023/02/02 01:02:42;;;;;;;2.30;0.90;;;;;;;0.39;100.00;95709.31;108773;1267;22524;-79
2023/02/02 01:05:15;;;;;;;1.00;0.70;;;;;;;0.36;100.00;95706.02;108763;1267;24232;-79
2023/02/02 01:07:47;;;;;;;0.70;0.60;;;;;;;0.39;100.00;95703.58;108743;1274;22570;-79
2023/02/02 01:10:19;;;;;;;2.40;1.00;;;;;;;0.45;100.00;95707.17;108626;1269;67253;-79
2023/02/02 01:12:50;;;;;;;1.00;0.60;;;;;;;0.47;100.00;95708.14;108734;1275;22571;-79
2023/02/02 01:15:21;;;;;;;0.50;0.40;;;;;;;0.49;100.00;95705.20;108741;1267;22595;-79
2023/02/02 01:17:52;;;;;;;1.20;0.60;;;;;;;0.52;100.00;95716.88;108763;1269;22620;-78
2023/02/02 01:20:24;;;;;;;0.90;0.60;;;;;;;0.55;100.00;95718.23;108672;1273;76852;-78
2023/02/02 01:22:55;;;;;;;2.20;0.70;;;;;;;0.55;100.00;95706.17;108781;1268;22542;-79
2023/02/02 01:25:29;;;;;;;1.60;0.60;;;;;;;0.55;100.00;95720.04;108770;1269;22570;-78
2023/02/02 01:28:00;;;;;;;0.60;0.50;;;;;;;0.55;100.00;95732.25;108768;1275;22654;-78
2023/02/02 01:30:31;;;;;;;1.00;0.50;;;;;;;0.56;100.00;95747.14;108742;1274;37549;-78
2023/02/02 01:33:02;;;;;;;0.30;0.20;;;;;;;0.54;100.00;95743.56;108752;1275;22556;-78
2023/02/02 01:35:33;;;;;;;0.70;0.30;;;;;;;0.49;100.00;95741.50;108707;1274;22575;-79
2023/02/02 01:38:04;;;;;;;0.80;0.50;;;;;;;0.42;100.00;95743.77;108750;1267;25420;-78
2023/02/02 01:40:44;;;;;;;0.50;0.40;;;;;;;0.39;100.00;95747.17;108711;1274;47226;-79
2023/02/02 01:43:26;;;;;;;0.40;0.20;;;;;;;0.39;100.00;95747.94;108734;1275;22554;-79
2023/02/02 01:45:58;;;;;;;1.50;0.60;;;;;;;0.41;100.00;95749.70;108814;1268;22663;-79
2023/02/02 01:48:35;;;;;;;0.90;0.40;;;;;;;0.40;100.00;95755.84;108669;1274;94424;-79
2023/02/02 01:51:11;;;;;;;0.40;0.40;;;;;;;0.39;100.00;95751.17;108726;1273;23295;-79
2023/02/02 01:53:43;;;;;;;1.10;0.40;;;;;;;0.38;100.00;95750.84;108737;1274;22720;-79
2023/02/02 01:56:18;;;;;;;0.60;0.40;;;;;;;0.37;100.00;95757.77;108763;1274;23843;-79
2023/02/02 01:58:50;;;;;;;0.80;0.30;;;;;;;0.38;100.00;95759.39;108698;1270;36394;-79
2023/02/02 02:01:21;;;;;;;1.00;0.20;;;;;;;0.39;100.00;95755.96;108757;1268;22521;-79
2023/02/02 02:03:53;;;;;;;0.10;0.10;;;;;;;0.39;100.00;95755.56;108756;1274;22917;-80
2023/02/02 02:06:25;;;;;;;0.40;0.20;;;;;;;0.43;100.00;95760.73;108777;1274;25356;-79
2023/02/02 02:09:01;;;;;;;1.60;0.50;;;;;;;0.46;100.00;95759.70;108792;1266;46394;-79
2023/02/02 02:11:36;;;;;;;1.00;0.40;;;;;;;0.48;100.00;95772.83;108783;1267;22511;-80
2023/02/02 02:17:15;;;;;;;0.50;0.30;;;;;;;0.48;99.93;95767.46;108726;1268;22540;-79
2023/02/02 02:26:55;;;;;;;1.50;0.50;;;;;;;0.43;99.99;95781.71;108770;1263;22546;-80
2023/02/02 02:30:02;;;;;;;0.60;0.40;;;;;;;0.44;99.92;95787.67;108997;1272;81023;-80
2023/02/02 02:32:42;;;;;;;0.90;0.70;;;;;;;0.44;99.89;95794.57;109134;1251;22517;-80
2023/02/02 02:35:23;;;;;;;0.30;0.30;;;;;;;0.43;99.95;95795.98;109182;1269;22521;-80
2023/02/02 02:37:59;;;;;;;0.40;0.30;;;;;;;0.39;100.00;95796.75;109029;1274;26783;-80
2023/02/02 02:40:36;;;;;;;0.60;0.40;;;;;;;0.34;100.00;95798.43;109029;1274;82989;-80
2023/02/02 02:43:16;;;;;;;1.00;0.20;;;;;;;0.29;100.00;95800.15;109061;1275;22542;-80
2023/02/02 02:45:47;;;;;;;1.10;0.40;;;;;;;0.31;100.00;95792.61;109082;1267;25311;-80
2023/02/02 02:48:19;;;;;;;0.90;0.40;;;;;;;0.29;100.00;95797.73;109044;1268;44626;-80
2023/02/02 02:50:53;;;;;;;2.40;0.50;;;;;;;0.28;100.00;95811.27;109091;1267;22629;-80
2023/02/02 02:53:24;;;;;;;0.80;0.50;;;;;;;0.27;100.00;95807.58;109066;1268;24225;-80
2023/02/02 02:56:05;;;;;;;3.40;0.90;;;;;;;0.29;100.00;95800.55;109118;1274;22538;-80
2023/02/02 02:58:45;;;;;;;0.90;0.60;;;;;;;0.33;100.00;95796.50;109052;1275;39702;-80
2023/02/02 03:01:21;;;;;;;2.30;1.60;;;;;;;0.36;100.00;95807.49;109088;1275;22518;-82
2023/02/02 03:04:07;;;;;;;3.40;1.20;;;;;;;0.37;100.00;95806.06;109085;1274;22528;-80
2023/02/02 03:06:45;;;;;;;4.70;1.60;;;;;;;0.36;100.00;95805.92;108764;1268;22633;-80
2023/02/02 03:09:23;;;;;;;2.90;0.80;;;;;;;0.35;100.00;95822.27;108700;1275;55960;-80
2023/02/02 03:11:55;;;;;;;2.70;1.00;;;;;;;0.35;100.00;95811.55;109059;1274;22692;-81
2023/02/02 03:14:28;;;;;;;1.00;0.70;;;;;;;0.39;100.00;95805.98;109106;1275;22531;-81
2023/02/02 03:17:02;;;;;;;3.30;1.30;;;;;;;0.45;100.00;95818.46;109077;1269;24143;-81
2023/02/02 03:19:34;;;;;;;2.60;1.20;;;;;;;0.43;100.00;95828.77;109013;1274;46743;-81
2023/02/02 03:22:05;;;;;;;2.60;1.30;;;;;;;0.42;100.00;95819.02;109084;1275;22526;-81
2023/02/02 03:24:36;;;;;;;2.40;1.40;;;;;;;0.43;100.00;95825.71;109084;1271;22517;-81
2023/02/02 03:27:07;;;;;;;2.60;1.20;;;;;;;0.41;100.00;95829.75;109093;1274;23019;-81
2023/02/02 03:29:38;;;;;;;4.20;1.70;;;;;;;0.42;100.00;95823.80;109071;1274;40083;-81
2023/02/02 03:32:10;;;;;;;4.70;1.70;;;;;;;0.41;100.00;95833.48;109063;1254;22562;-82
2023/02/02 03:34:41;;;;;;;3.90;1.20;;;;;;;0.42;100.00;95839.36;109102;1274;25332;-81
2023/02/02 03:37:12;;;;;;;5.70;1.50;;;;;;;0.44;100.00;95843.59;109086;1274;22543;-81
2023/02/02 03:39:45;;;;;;;2.50;1.40;;;;;;;0.45;100.00;95834.27;109009;1274;46774;-81
2023/02/02 03:42:18;;;;;;;3.40;1.80;;;;;;;0.49;100.00;95827.02;109079;1274;25234;-81
2023/02/02 03:44:52;;;;;;;7.00;1.90;;;;;;;0.53;100.00;95845.50;109030;1263;22529;-81
2023/02/02 03:47:23;;;;;;;5.70;1.60;;;;;;;0.55;100.00;95843.92;109050;1267;23889;-81
2023/02/02 03:49:54;;;;;;;1.80;1.20;;;;;;;0.56;100.00;95853.77;108990;1269;102375;-81
2023/02/02 03:52:26;;;;;;;5.70;1.40;;;;;;;0.55;99.85;95849.86;109058;1274;22626;-80
2023/02/02 03:54:57;;;;;;;2.00;0.90;;;;;;;0.53;99.95;95854.20;109021;1267;25043;-81
2023/02/02 03:57:28;;;;;;;3.60;1.40;;;;;;;0.49;100.00;95859.83;109102;1274;25311;-81
2023/02/02 03:59:59;;;;;;;4.30;1.40;;;;;;;0.48;99.95;95848.55;108981;1275;52841;-81
2023/02/02 04:02:30;;;;;;;3.60;1.40;;;;;;;0.53;99.78;95859.06;109090;1274;25447;-81
2023/02/02 04:05:04;;;;;;;8.50;2.00;;;;;;;0.58;99.50;95854.21;109061;1275;23859;-81
2023/02/02 04:07:38;;;;;;;5.10;2.40;;;;;;;0.58;99.16;95856.20;109103;1274;22577;-81
2023/02/02 04:10:10;;;;;;;6.00;1.90;;;;;;;0.59;99.13;95855.07;108997;1273;37917;-81
2023/02/02 04:12:47;;;;;;;2.90;1.40;;;;;;;0.60;98.90;95857.85;109058;1269;22610;-82
2023/02/02 04:15:18;;;;;;;6.10;1.90;;;;;;;0.57;98.89;95859.42;109060;1267;26563;-81
2023/02/02 04:17:51;;;;;;;4.40;1.40;;;;;;;0.58;98.86;95854.64;109053;1271;22530;-81
2023/02/02 04:20:22;;;;;;;4.90;2.00;;;;;;;0.59;98.64;95869.98;109007;1274;70625;-81
2023/02/02 04:22:53;;;;;;;2.70;1.50;;;;;;;0.61;98.41;95859.43;109124;1271;22530;-81
2023/02/02 04:25:25;;;;;;;6.30;1.40;;;;;;;0.64;98.14;95873.56;109089;1272;25301;-81
2023/02/02 04:27:56;;;;;;;5.70;2.10;;;;;;;0.65;97.63;95862.63;109043;1274;23870;-81
2023/02/02 04:30:27;;;;;;;6.80;2.10;;;;;;;0.65;97.76;95870.86;109020;1272;64126;-81
2023/02/02 04:32:58;;;;;;;5.50;2.10;;;;;;;0.64;97.71;95869.75;109089;1274;22588;-81
2023/02/02 04:35:32;;;;;;;3.20;1.40;;;;;;;0.65;97.53;95870.54;109062;1274;22538;-81
2023/02/02 04:38:03;;;;;;;10.00;2.60;;;;;;;0.66;97.46;95881.88;109084;1271;23283;-81
2023/02/02 04:40:34;;;;;;;15.80;1.80;;;;;;;0.69;97.00;95867.08;108981;1274;99886;-81
2023/02/02 04:43:07;;;;;;;5.30;1.60;;;;;;;0.72;96.59;95879.04;109072;1275;22672;-81
2023/02/02 04:45:42;;;;;;;5.20;1.00;;;;;;;0.70;96.65;95869.54;109086;1274;22536;-81
2023/02/02 04:48:13;;;;;;;6.80;2.00;;;;;;;0.69;96.81;95881.25;109053;1268;22542;-81
2023/02/02 04:50:44;;;;;;;6.40;2.80;;;;;;;0.68;96.65;95875.80;109019;1268;22507;-81
2023/02/02 04:53:15;;;;;;;3.50;1.00;;;;;;;0.69;96.86;95883.96;109079;1274;22616;-81
2023/02/02 04:55:46;;;;;;;5.60;1.40;;;;;;;0.69;96.68;95889.55;109059;1274;22517;-81
2023/02/02 04:58:20;;;;;;;6.20;1.60;;;;;;;0.68;96.68;95884.99;108969;1274;89243;-81
2023/02/02 05:00:52;;;;;;;3.30;0.90;;;;;;;0.68;96.67;95890.98;109091;1274;24226;-81
2023/02/02 05:03:23;;;;;;;4.00;1.30;;;;;;;0.67;96.89;95893.05;109032;1274;22529;-82
2023/02/02 05:06:02;;;;;;;5.90;1.40;;;;;;;0.66;97.01;95890.75;109030;1272;24822;-82
2023/02/02 05:08:37;;;;;;;4.10;1.30;;;;;;;0.67;96.74;95882.89;109034;1267;60727;-81
2023/02/02 05:11:14;;;;;;;7.10;1.50;;;;;;;0.69;96.79;95885.17;109045;1269;23061;-81
2023/02/02 05:13:50;;;;;;;4.40;1.20;;;;;;;0.70;96.43;95885.67;109072;1275;25256;-82
2023/02/02 05:16:22;;;;;;;6.70;1.70;;;;;;;0.71;96.26;95887.00;109051;1267;23859;-82
2023/02/02 05:18:55;;;;;;;4.90;1.70;;;;;;;0.72;95.86;95897.56;108984;1274;68188;-82
2023/02/02 05:21:27;;;;;;;5.90;1.70;;;;;;;0.71;96.10;95893.05;109086;1274;22519;-82
2023/02/02 05:24:02;;;;;;;8.40;2.20;;;;;;;0.71;96.21;95899.20;109127;1253;23703;-82
2023/02/02 05:26:33;;;;;;;6.70;1.70;;;;;;;0.68;96.20;95899.19;109058;1275;24279;-82
2023/02/02 05:29:05;;;;;;;5.90;1.30;;;;;;;0.66;96.42;95897.27;108974;1275;49932;-82
2023/02/02 05:31:36;;;;;;;8.30;3.00;;;;;;;0.66;96.24;95893.14;108997;1275;23773;-82
2023/02/02 05:34:10;;;;;;;13.70;1.50;;;;;;;0.69;95.92;95882.56;109114;1263;22526;-82
2023/02/02 05:36:41;;;;;;;4.80;1.30;;;;;;;0.72;95.97;95888.21;109095;1269;22522;-82
2023/02/02 05:39:18;;;;;;;7.70;1.10;;;;;;;0.72;95.54;95889.46;109039;1268;56803;-81
2023/02/02 05:41:49;;;;;;;4.10;1.80;;;;;;;0.72;95.27;95890.14;109055;1273;22524;-82
2023/02/02 05:44:21;;;;;;;4.20;1.20;;;;;;;0.75;94.82;95882.79;109017;1269;22530;-82
2023/02/02 05:46:52;;;;;;;4.20;1.20;;;;;;;0.76;94.67;95897.27;109097;1274;25421;-81
2023/02/02 05:49:23;;;;;;;4.50;1.30;;;;;;;0.78;94.42;95890.29;109036;1272;55233;-82
2023/02/02 05:51:59;;;;;;;4.40;0.90;;;;;;;0.78;94.20;95899.27;109034;1275;22575;-82
2023/02/02 05:54:31;;;;;;;8.20;1.90;;;;;;;0.78;94.07;95905.02;109065;1268;22523;-82
2023/02/02 05:57:05;;;;;;;8.60;1.40;;;;;;;0.78;94.19;95894.41;109107;1274;22522;-83
2023/02/02 05:59:36;;;;;;;5.30;2.10;;;;;;;0.79;93.77;95906.44;108959;1274;57077;-82
2023/02/02 06:02:07;;;;;;;4.10;1.10;;;;;;;0.78;94.07;95898.02;109064;1274;22526;-83
2023/02/02 06:04:38;;;;;;;8.00;1.70;;;;;;;0.78;93.68;95894.98;109107;1274;24194;-83
2023/02/02 06:07:10;;;;;;;4.70;1.40;;;;;;;0.77;93.73;95896.73;109092;1274;25448;-82
2023/02/02 06:09:43;;;;;;;5.40;1.40;;;;;;;0.75;93.62;95903.23;108988;1275;48570;-82
2023/02/02 06:12:15;;;;;;;7.20;1.70;;;;;;;0.74;93.84;95904.79;109050;1269;22693;-82
2023/02/02 06:14:46;;;;;;;5.90;1.80;;;;;;;0.73;94.01;95902.89;109102;1275;22580;-82
2023/02/02 06:17:17;;;;;;;6.50;2.20;;;;;;;0.70;94.09;95905.49;109023;1275;26772;-82
2023/02/02 06:19:49;;;;;;;9.50;2.00;;;;;;;0.69;94.12;95906.92;108990;1274;86407;-82
2023/02/02 06:22:20;;;;;;;6.20;2.00;;;;;;;0.67;94.47;95907.81;109064;1274;25590;-82
2023/02/02 06:24:52;;;;;;;8.10;2.10;;;;;;;0.66;94.59;95910.56;109066;1275;22522;-82
2023/02/02 06:27:24;;;;;;;4.10;1.50;;;;;;;0.65;94.40;95912.44;109063;1273;22534;-82
2023/02/02 06:29:56;;;;;;;6.00;1.80;;;;;;;0.65;94.69;95906.27;109045;1274;42911;-82
2023/02/02 06:32:28;;;;;;;5.30;1.50;;;;;;;0.64;94.74;95906.84;109070;1274;22523;-82
2023/02/02 06:34:59;;;;;;;7.70;1.70;;;;;;;0.63;94.67;95906.14;109065;1268;25423;-82
2023/02/02 06:37:32;;;;;;;4.90;1.40;;;;;;;0.63;94.66;95897.06;109066;1272;22556;-83
2023/02/02 06:40:05;;;;;;;6.60;1.30;;;;;;;0.64;94.71;95895.73;109030;1268;77599;-82
2023/02/02 06:42:37;;;;;;;7.20;2.20;;;;;;;0.65;94.47;95895.59;109030;1274;22531;-83
2023/02/02 06:45:11;;;;;;;3.60;1.40;;;;;;;0.66;94.68;95892.30;109052;1274;22558;-83
2023/02/02 06:47:42;;;;;;;12.80;2.30;;;;;;;0.68;94.47;95886.52;109083;1274;22510;-82
2023/02/02 06:50:14;;;;;;;3.50;1.40;;;;;;;0.71;94.28;95886.67;109086;1275;45260;-82
2023/02/02 06:52:50;;;;;;;4.90;1.80;;;;;;;0.74;94.24;95881.27;109066;1274;25495;-83
2023/02/02 06:55:21;;;;;;;5.70;1.70;;;;;;;0.83;94.06;95870.09;109080;1269;25327;-83
2023/02/02 06:58:01;;;;;;;5.30;1.50;;;;;;;0.91;93.84;95873.10;109075;1268;22635;-82
2023/02/02 07:00:35;;;;;;;8.30;1.90;;;;;;;1.00;93.56;95872.79;109024;1272;50760;-83
2023/02/02 07:03:07;;;;;;;4.50;1.80;;;;;;;1.02;93.17;95874.38;109030;1274;22566;-83
2023/02/02 07:05:42;;;;;;;3.30;1.40;;;;;;;1.02;93.56;95878.24;109036;1274;22518;-83
2023/02/02 07:08:13;;;;;;;4.00;1.30;;;;;;;1.06;92.87;95876.38;109002;1274;24659;-83
2023/02/02 07:10:51;;;;;;;7.80;2.10;;;;;;;1.12;92.44;95870.41;109108;1273;22578;-83
2023/02/02 07:13:24;;;;;;;5.90;1.60;;;;;;;1.16;92.29;95869.92;109065;1268;22559;-83
2023/02/02 07:15:57;;;;;;;7.40;1.70;;;;;;;1.12;91.51;95873.77;109044;1274;22631;-83
2023/02/02 07:18:28;;;;;;;3.10;1.40;;;;;;;1.10;91.15;95884.06;109011;1266;63031;-83
2023/02/02 07:21:01;;;;;;;4.20;1.80;;;;;;;1.09;91.37;95879.23;109082;1272;22573;-83
2023/02/02 07:23:34;;;;;;;4.20;1.00;;;;;;;1.12;91.31;95879.40;109008;1274;22543;-83
2023/02/02 07:26:08;;;;;;;3.10;0.90;;;;;;;1.18;90.91;95881.29;109099;1268;22628;-83
2023/02/02 07:28:40;;;;;;;4.40;1.20;;;;;;;1.12;90.80;95871.73;109078;1269;31045;-83
2023/02/02 07:31:23;;;;;;;4.80;1.80;;;;;;;1.07;91.06;95869.40;109067;1271;24223;-84
2023/02/02 07:33:55;;;;;;;2.50;1.10;;;;;;;1.04;91.18;95868.98;109069;1275;22542;-82
2023/02/02 07:36:27;;;;;;;3.70;1.20;;;;;;;1.06;91.23;95864.44;109087;1271;24637;-84
2023/02/02 07:38:58;;;;;;;8.00;1.90;;;;;;;1.10;90.52;95869.19;109049;1275;45089;-82
2023/02/02 07:41:29;;;;;;;6.70;1.80;;;;;;;1.15;89.97;95865.46;109024;1271;22544;-82
2023/02/02 07:44:00;;;;;;;5.70;1.60;;;;;;;1.20;89.68;95872.33;109036;1267;25518;-83
2023/02/02 07:46:31;;;;;;;4.80;1.60;;;;;;;1.18;89.45;95872.73;109053;1269;24210;-83
2023/02/02 07:49:04;;;;;;;3.50;1.30;;;;;;;1.15;89.70;95865.05;109039;1264;65392;-83
2023/02/02 07:51:36;;;;;;;5.70;1.90;;;;;;;1.08;90.57;95864.88;109075;1275;22652;-82
2023/02/02 07:54:10;;;;;;;6.10;2.20;;;;;;;1.04;90.76;95870.60;109024;1272;25303;-82
2023/02/02 07:56:43;;;;;;;3.80;1.90;;;;;;;1.04;91.09;95876.52;109028;1259;22924;-82
2023/02/02 07:59:14;;;;;;;5.60;1.60;;;;;;;1.08;91.06;95858.97;108973;1270;70727;-83
2023/02/02 08:01:46;;;;;;;5.80;1.90;;;;;;;1.12;90.68;95867.30;109088;1275;23758;-82
2023/02/02 08:04:18;;;;;;;3.70;1.30;;;;;;;1.24;90.65;95862.20;109031;1275;23828;-83
2023/02/02 08:06:49;;;;;;;7.40;1.90;;;;;;;1.36;89.72;95865.83;109011;1274;24253;-83
2023/02/02 08:09:20;;;;;;;5.70;2.50;;;;;;;1.30;89.13;95861.31;109042;1272;48850;-83
2023/02/02 08:11:51;;;;;;;4.20;2.20;;;;;;;1.25;89.36;95873.07;109066;1272;25264;-84
2023/02/02 08:14:23;;;;;;;3.60;1.20;;;;;;;1.21;89.52;95868.11;109036;1275;22550;-83
2023/02/02 08:16:54;;;;;;;5.60;1.20;;;;;;;1.10;89.90;95865.33;109049;1269;22524;-83
2023/02/02 08:19:27;;;;;;;2.70;0.90;;;;;;;0.98;90.34;95864.19;108958;1275;64491;-83
2023/02/02 08:21:58;;;;;;;5.00;1.30;;;;;;;0.89;91.13;95880.33;109065;1275;25904;-83
2023/02/02 08:24:29;;;;;;;2.80;1.00;;;;;;;0.86;91.95;95867.39;109115;1272;25262;-83
2023/02/02 08:27:00;;;;;;;2.50;1.40;;;;;;;0.81;92.67;95865.05;109064;1267;23138;-83
2023/02/02 08:29:31;;;;;;;4.20;1.60;;;;;;;0.77;92.91;95872.23;109013;1266;91445;-83
2023/02/02 08:32:03;;;;;;;5.00;1.50;;;;;;;0.75;93.26;95875.02;109094;1275;22517;-83
2023/02/02 08:34:35;;;;;;;6.90;2.50;;;;;;;0.79;93.52;95875.85;109129;1275;22558;-83
2023/02/02 08:37:07;;;;;;;3.30;1.70;;;;;;;0.84;93.33;95872.13;109055;1267;22659;-83
2023/02/02 08:39:38;;;;;;;3.60;1.60;;;;;;;0.83;93.49;95862.46;108991;1274;45353;-84
2023/02/02 08:42:09;;;;;;;5.60;2.20;;;;;;;0.80;93.49;95862.41;109054;1271;24245;-83
2023/02/02 08:44:40;;;;;;;2.00;1.20;;;;;;;0.76;93.92;95870.86;108989;1275;23751;-83
2023/02/02 08:47:13;;;;;;;4.10;2.00;;;;;;;0.73;94.47;95861.73;109072;1271;22564;-83
2023/02/02 08:49:44;;;;;;;4.90;1.70;;;;;;;0.73;94.88;95862.98;108985;1275;70770;-84
2023/02/02 08:52:18;;;;;;;2.90;1.40;;;;;;;0.75;95.64;95861.55;109085;1274;22645;-82
2023/02/02 08:54:49;;;;;;;2.60;1.00;;;;;;;0.75;95.89;95860.98;109071;1275;23989;-83
2023/02/02 08:57:20;;;;;;;3.20;1.80;;;;;;;0.77;96.30;95846.40;109039;1274;23745;-83
2023/02/02 08:59:51;;;;;;;3.40;1.60;;;;;;;0.75;96.45;95850.02;109039;1275;36645;-83
2023/02/02 09:02:25;;;;;;;3.20;1.80;;;;;;;0.72;96.71;95849.14;109014;1272;22545;-82
2023/02/02 09:04:56;;;;;;;3.90;1.90;;;;;;;0.73;97.15;95852.19;109052;1274;22528;-83
2023/02/02 09:07:29;;;;;;;3.40;1.70;;;;;;;0.79;97.50;95855.87;109033;1274;22520;-82
2023/02/02 09:10:00;;;;;;;5.20;1.80;;;;;;;0.78;97.28;95859.26;109033;1273;30605;-82
2023/02/02 09:12:32;;;;;;;6.40;2.50;;;;;;;0.75;97.38;95860.73;109070;1274;22525;-82
2023/02/02 09:15:03;;;;;;;4.60;2.40;;;;;;;0.72;97.89;95856.48;109025;1274;22548;-82
2023/02/02 09:17:35;;;;;;;4.60;1.90;;;;;;;0.66;98.09;95868.02;109062;1270;22516;-82
2023/02/02 09:20:08;;;;;;;3.60;1.60;;;;;;;0.66;98.67;95856.73;109012;1251;80716;-82
2023/02/02 09:22:39;;;;;;;4.90;1.60;;;;;;;0.67;98.60;95865.48;109053;1275;25893;-83
2023/02/02 09:25:13;;;;;;;3.70;2.50;;;;;;;0.69;98.69;95869.73;109070;1274;22542;-83
2023/02/02 09:27:44;;;;;;;6.00;2.30;;;;;;;0.73;98.97;95872.94;109039;1272;23456;-82
2023/02/02 09:30:16;;;;;;;2.40;1.60;;;;;;;0.83;99.30;95868.73;108961;1275;40233;-82
2023/02/02 09:32:50;;;;;;;3.20;1.90;;;;;;;0.90;98.89;95872.04;109052;1264;26952;-81
2023/02/02 09:35:22;;;;;;;3.80;2.20;;;;;;;0.87;98.88;95868.70;109087;1269;22542;-81
2023/02/02 09:37:53;;;;;;;1.80;1.20;;;;;;;0.83;98.97;95878.86;109057;1274;22521;-81
2023/02/02 09:40:26;;;;;;;3.30;2.20;;;;;;;0.75;98.99;95868.09;108931;1269;44895;-81
2023/02/02 09:43:08;;;;;;;3.90;1.80;;;;;;;0.71;99.11;95871.90;109014;1275;22526;-80
2023/02/02 09:45:51;;;;;;;2.30;1.30;;;;;;;0.68;99.42;95862.20;108994;1275;23634;-81
2023/02/02 09:48:32;;;;;;;3.80;2.50;;;;;;;0.67;99.71;95868.60;108989;1265;40578;-80
2023/02/02 09:51:09;;;;;;;3.30;1.80;;;;;;;0.71;99.93;95864.83;109058;1275;22574;-80
2023/02/02 09:53:47;;;;;;;4.20;1.70;;;;;;;0.78;99.90;95856.84;109062;1274;22565;-80
2023/02/02 09:56:26;;;;;;;4.10;1.70;;;;;;;0.88;99.99;95861.17;109009;1270;23780;-80
2023/02/02 09:59:01;;;;;;;3.50;1.80;;;;;;;0.99;100.00;95859.46;108774;1274;23316;-81
2023/02/02 10:01:38;;;;;;;1.40;1.00;;;;;;;1.05;99.64;95863.02;109053;1262;23417;-80
2023/02/02 10:04:17;;;;;;;3.30;1.70;;;;;;;1.07;99.52;95854.52;108823;1274;22970;-80
2023/02/02 10:06:48;;;;;;;;;;;;;;;1.08;99.43;95860.33;109008;1275;22652;-81
2023/02/02 10:09:30;;;;;;;4.70;1.40;;;;;;;1.07;99.46;95859.23;108993;1272;55916;-80
2023/02/02 10:12:07;;;;;;;2.40;1.40;;;;;;;1.08;99.52;95867.17;109008;1275;25069;-80
2023/02/02 10:14:48;;;;;;;2.50;1.70;;;;;;;1.12;99.40;95866.55;109087;1275;22527;-80
2023/02/02 10:17:35;;;;;;;3.40;1.90;;;;;;;1.16;99.57;95871.70;109050;1268;22487;-81
2023/02/02 10:20:21;;;;;;;4.00;2.20;;;;;;;1.20;99.87;95861.20;108977;1274;79676;-80
2023/02/02 10:22:56;;;;;;;1.70;1.10;;;;;;;1.18;99.87;95874.77;109020;1274;22477;-80
2023/02/02 10:25:29;;;;;;;2.70;1.30;;;;;;;1.13;99.51;95858.45;109024;1275;22534;-81
2023/02/02 10:28:09;;;;;;;3.20;1.70;;;;;;;1.08;99.53;95885.23;109026;1275;22525;-80
2023/02/02 10:30:46;;;;;;;3.70;1.50;;;;;;;1.03;99.54;95885.84;109011;1274;41130;-80
2023/02/02 10:33:29;;;;;;;3.50;2.40;;;;;;;0.96;99.62;95886.76;109031;1275;22521;-81
2023/02/02 10:36:12;;;;;;;2.30;1.40;;;;;;;0.93;99.95;95879.29;109027;1274;22997;-80
2023/02/02 10:38:53;;;;;;;3.60;1.40;;;;;;;0.91;99.93;95885.78;109044;1275;62771;-81
2023/02/02 10:41:30;;;;;;;1.90;1.00;;;;;;;0.87;100.00;95883.74;109018;1274;25448;-81
2023/02/02 10:44:17;;;;;;;2.80;1.50;;;;;;;0.86;100.00;95888.11;109008;1274;23150;-81
2023/02/02 10:46:53;;;;;;;2.90;1.40;;;;;;;0.86;100.00;95899.99;109010;1275;22597;-81
2023/02/02 10:49:30;;;;;;;3.10;1.90;;;;;;;0.85;100.00;95898.20;109040;1270;31430;-81
2023/02/02 10:52:13;;;;;;;2.40;1.30;;;;;;;0.80;100.00;95899.25;109049;1274;25428;-81
2023/02/02 10:54:55;;;;;;;2.00;1.30;;;;;;;0.77;100.00;95908.22;109003;1275;23712;-81
2023/02/02 10:57:41;;;;;;;1.90;1.20;;;;;;;0.80;100.00;95903.52;109056;1274;22531;-80
2023/02/02 11:00:22;;;;;;;1.70;0.80;;;;;;;0.82;100.00;95911.59;108992;1275;32123;-81
2023/02/02 11:02:54;;;;;;;3.80;1.40;;;;;;;0.80;100.00;95921.58;109067;1272;22563;-81
2023/02/02 11:08:19;;;;;;;2.30;1.40;;;;;;;0.78;100.00;95916.44;108967;1271;39946;-80
2023/02/02 11:10:55;;;;;;;2.40;1.30;;;;;;;0.80;100.00;95913.75;109077;1274;22541;-81
2023/02/02 11:13:36;;;;;;;2.30;1.20;;;;;;;0.84;100.00;95919.48;109045;1270;22536;-81
2023/02/02 11:16:29;;;;;;;2.20;0.90;;;;;;;0.91;100.00;95912.08;109030;1256;22598;-81
2023/02/02 11:19:01;;;;;;;3.00;1.10;;;;;;;0.99;100.00;95921.27;109000;1275;37976;-80
2023/02/02 11:21:36;;;;;;;2.30;1.30;;;;;;;1.00;100.00;95930.36;109054;1272;24062;-80
2023/02/02 11:24:21;;;;;;;1.90;1.00;;;;;;;0.99;100.00;95934.63;109014;1272;22569;-79
2023/02/02 11:26:57;;;;;;;3.50;1.40;;;;;;;0.97;100.00;95940.73;109044;1274;22521;-79
2023/02/02 11:29:32;;;;;;;2.30;1.40;;;;;;;0.95;100.00;95947.79;108762;1275;51733;-79
2023/02/02 11:32:25;;;;;;;3.10;1.40;;;;;;;0.99;100.00;95942.55;109038;1275;22598;-79
2023/02/02 11:35:17;;;;;;;1.10;0.90;;;;;;;1.04;100.00;95947.65;108748;1275;22510;-78
2023/02/02 11:37:59;;;;;;;1.90;1.00;;;;;;;1.09;100.00;95951.23;108760;1275;22518;-79
2023/02/02 11:40:36;;;;;;;1.60;1.10;;;;;;;1.11;99.98;95934.35;108749;1274;37856;-79
2023/02/02 11:43:18;;;;;;;1.00;0.90;;;;;;;1.07;99.40;95944.09;108889;1274;22520;-78
2023/02/02 11:45:56;;;;;;;1.30;1.00;;;;;;;0.98;99.43;95945.04;108787;1275;22517;-79
2023/02/02 11:48:31;;;;;;;2.80;1.10;;;;;;;0.93;99.95;95951.26;108807;1272;38948;-79
2023/02/02 11:51:03;;;;;;;2.40;1.20;;;;;;;0.89;99.91;95964.91;108850;1266;24002;-79
2023/02/02 11:53:43;;;;;;;4.30;1.70;;;;;;;0.87;100.00;95962.02;108840;1272;23766;-79
2023/02/02 11:56:23;;;;;;;2.60;1.50;;;;;;;0.86;100.00;95969.92;108829;1275;22550;-78
2023/02/02 11:59:00;;;;;;;3.80;1.50;;;;;;;0.83;100.00;95976.64;108775;1275;49815;-79
2023/02/02 12:01:38;;;;;;;3.90;1.90;;;;;;;0.80;100.00;95975.48;108785;1272;22527;-80
2023/02/02 12:04:26;;;;;;;3.80;1.20;;;;;;;0.74;100.00;95982.00;108621;1272;250060;-79
2023/02/02 12:07:00;;;;;;;7.40;3.00;;;;;;;0.69;100.00;95979.27;108807;1275;22680;-79
2023/02/02 12:09:31;;;;;;;5.20;1.70;;;;;;;0.71;100.00;95983.03;108816;1275;95175;-79
2023/02/02 12:12:16;;;;;;;2.20;1.10;;;;;;;0.69;100.00;95986.56;108823;1275;22522;-79
2023/02/02 12:14:56;;;;;;;4.00;1.70;;;;;;;0.73;100.00;95981.26;109033;1274;22526;-79
2023/02/02 12:17:39;;;;;;;4.60;1.80;;;;;;;0.79;100.00;95985.65;108755;1275;23869;-79
2023/02/02 12:20:36;;;;;;;3.10;1.90;;;;;;;0.85;100.00;95996.50;108738;1271;67589;-80